createdAt,value
2022-08-20T00:02:15.067Z,60.08
2022-08-20T00:04:43.974Z,60.16
2022-08-20T00:07:14.011Z,60.47
2022-08-20T00:09:42.978Z,60.24
2022-08-20T00:12:13.928Z,60.67
2022-08-20T00:14:42.282Z,60.69
2022-08-20T00:17:10.407Z,60.97
2022-08-20T00:19:38.542Z,60.82
2022-08-20T00:22:06.931Z,60.91
2022-08-20T00:24:36.336Z,61.30
2022-08-20T00:27:04.646Z,61.26
2022-08-20T00:29:36.062Z,61.19
2022-08-20T00:32:05.142Z,61.36
2022-08-20T00:34:33.736Z,61.55
2022-08-20T00:37:02.886Z,61.81
2022-08-20T00:39:30.861Z,61.66
2022-08-20T00:42:00.472Z,61.84
2022-08-20T00:44:31.005Z,61.73
2022-08-20T00:46:59.120Z,62.30
2022-08-20T00:49:30.026Z,62.20
2022-08-20T00:52:02.267Z,62.29
2022-08-20T00:54:35.561Z,62.25
2022-08-20T00:57:11.967Z,62.55
2022-08-20T00:59:43.181Z,62.75
2022-08-20T01:02:14.908Z,62.69
2022-08-20T01:04:46.399Z,62.90
2022-08-20T01:07:14.589Z,62.91
2022-08-20T01:09:57.881Z,63.09
2022-08-20T01:12:30.718Z,63.39
2022-08-20T01:15:02.453Z,63.28
2022-08-20T01:17:36.469Z,63.35
2022-08-20T01:20:09.353Z,63.46
2022-08-20T01:23:02.486Z,63.80
2022-08-20T01:25:42.165Z,63.85
2022-08-20T01:28:11.850Z,63.88
2022-08-20T01:30:40.066Z,64.05
2022-08-20T01:33:08.346Z,64.19
2022-08-20T01:35:38.106Z,64.20
2022-08-20T01:38:06.864Z,64.38
2022-08-20T01:40:51.629Z,64.57
2022-08-20T01:43:19.768Z,64.71
2022-08-20T01:45:50.196Z,64.66
2022-08-20T01:48:19.732Z,64.83
2022-08-20T01:51:02.106Z,64.97
2022-08-20T01:53:34.378Z,65.09
2022-08-20T01:56:07.616Z,65.11
2022-08-20T01:58:39.247Z,65.31
2022-08-20T02:01:07.685Z,65.00
2022-08-20T02:03:39.716Z,65.37
2022-08-20T02:06:10.855Z,65.56
2022-08-20T02:08:38.784Z,65.53
2022-08-20T02:11:09.022Z,65.62
2022-08-20T02:13:38.492Z,65.85
2022-08-20T02:16:07.085Z,65.97
2022-08-20T02:18:35.029Z,66.08
2022-08-20T02:21:03.988Z,66.25
2022-08-20T02:23:31.893Z,66.32
2022-08-20T02:26:00.464Z,66.46
2022-08-20T02:28:30.357Z,66.55
2022-08-20T02:31:00.573Z,66.56
2022-08-20T02:33:28.605Z,66.24
2022-08-20T02:35:57.855Z,66.83
2022-08-20T02:38:26.032Z,66.75
2022-08-20T02:40:54.013Z,66.98
2022-08-20T02:43:21.962Z,66.89
2022-08-20T02:45:51.603Z,67.19
2022-08-20T02:48:23.393Z,66.99
2022-08-20T02:50:54.916Z,67.09
2022-08-20T02:53:24.135Z,67.38
2022-08-20T02:55:52.644Z,67.50
2022-08-20T02:58:21.336Z,67.61
2022-08-20T03:00:56.925Z,67.48
2022-08-20T03:03:25.505Z,67.72
2022-08-20T03:05:55.398Z,67.84
2022-08-20T03:08:24.208Z,67.96
2022-08-20T03:10:53.792Z,67.97
2022-08-20T03:13:22.640Z,68.08
2022-08-20T03:15:58.452Z,67.95
2022-08-20T03:18:31.042Z,68.06
2022-08-20T03:20:59.272Z,68.23
2022-08-20T03:23:27.228Z,68.23
2022-08-20T03:25:55.687Z,68.43
2022-08-20T03:28:23.814Z,68.23
2022-08-20T03:30:53.309Z,68.30
2022-08-20T03:33:22.064Z,68.54
2022-08-20T03:35:51.607Z,68.74
2022-08-20T03:38:33.212Z,68.53
2022-08-20T03:41:02.086Z,68.75
2022-08-20T03:43:31.275Z,68.77
2022-08-20T03:46:00.043Z,68.75
2022-08-20T03:48:29.235Z,69.01
2022-08-20T03:51:00.886Z,68.85
2022-08-20T03:53:31.969Z,69.17
2022-08-20T03:56:04.362Z,69.01
2022-08-20T03:58:34.905Z,69.29
2022-08-20T04:01:06.708Z,69.25
2022-08-20T04:03:35.404Z,69.25
2022-08-20T04:06:05.249Z,69.14
2022-08-20T04:08:33.208Z,69.15
2022-08-20T04:11:01.547Z,69.50
2022-08-20T04:13:33.524Z,69.63
2022-08-20T04:16:05.985Z,69.51
2022-08-20T04:18:39.162Z,69.42
2022-08-20T04:21:08.879Z,69.61
2022-08-20T04:23:36.730Z,69.56
2022-08-20T04:26:05.335Z,69.71
2022-08-20T04:28:33.981Z,69.66
2022-08-20T04:31:02.604Z,69.71
2022-08-20T04:33:35.220Z,69.90
2022-08-20T04:36:06.421Z,69.82
2022-08-20T04:38:49.674Z,69.91
2022-08-20T04:41:22.486Z,69.77
2022-08-20T04:43:53.152Z,69.94
2022-08-20T04:46:23.937Z,69.92
2022-08-20T04:48:51.979Z,69.99
2022-08-20T04:51:22.961Z,70.20
2022-08-20T04:53:54.264Z,70.28
2022-08-20T04:56:24.547Z,70.08
2022-08-20T04:58:54.798Z,70.27
2022-08-20T05:01:24.207Z,70.13
2022-08-20T05:03:55.025Z,70.34
2022-08-20T05:06:25.712Z,70.31
2022-08-20T05:08:55.972Z,70.21
2022-08-20T05:11:33.669Z,70.28
2022-08-20T05:14:08.066Z,70.60
2022-08-20T05:16:40.656Z,70.49
2022-08-20T05:19:10.740Z,70.54
2022-08-20T05:21:38.898Z,70.89
2022-08-20T05:24:17.595Z,70.63
2022-08-20T05:26:47.632Z,70.88
2022-08-20T05:29:16.260Z,70.80
2022-08-20T05:31:44.959Z,70.86
2022-08-20T05:34:13.840Z,71.08
2022-08-20T05:36:44.840Z,71.08
2022-08-20T05:39:17.038Z,71.05
2022-08-20T05:41:53.780Z,71.17
2022-08-20T05:44:22.564Z,71.24
2022-08-20T05:46:50.667Z,71.44
2022-08-20T05:49:22.431Z,71.60
2022-08-20T05:51:52.250Z,71.46
2022-08-20T05:54:21.973Z,71.72
2022-08-20T05:56:50.044Z,71.71
2022-08-20T05:59:23.555Z,71.82
2022-08-20T06:01:53.082Z,71.83
2022-08-20T06:04:26.855Z,71.92
2022-08-20T06:06:59.282Z,71.92
2022-08-20T06:09:32.679Z,71.99
2022-08-20T06:12:02.917Z,72.18
2022-08-20T06:14:32.098Z,72.31
2022-08-20T06:17:08.012Z,72.48
2022-08-20T06:19:37.551Z,72.40
2022-08-20T06:22:17.915Z,72.43
2022-08-20T06:24:50.182Z,72.60
2022-08-20T06:27:19.707Z,72.63
2022-08-20T06:29:48.328Z,72.85
2022-08-20T06:32:16.946Z,72.78
2022-08-20T06:34:49.660Z,72.99
2022-08-20T06:37:21.678Z,72.99
2022-08-20T06:39:51.534Z,73.07
2022-08-20T06:42:22.441Z,73.28
2022-08-20T06:44:51.331Z,73.37
2022-08-20T06:47:23.760Z,73.50
2022-08-20T06:49:51.951Z,73.66
2022-08-20T06:52:19.940Z,73.39
2022-08-20T06:54:59.624Z,73.69
2022-08-20T06:57:27.859Z,73.78
2022-08-20T06:59:58.591Z,73.93
2022-08-20T07:02:30.648Z,73.93
2022-08-20T07:05:00.158Z,74.21
2022-08-20T07:07:28.533Z,74.21
2022-08-20T07:10:02.635Z,74.26
2022-08-20T07:12:35.077Z,74.50
2022-08-20T07:15:03.491Z,74.49
2022-08-20T07:17:32.177Z,74.71
2022-08-20T07:20:00.567Z,74.76
2022-08-20T07:22:28.554Z,74.59
2022-08-20T07:24:56.587Z,74.80
2022-08-20T07:27:26.130Z,74.84
2022-08-20T07:30:15.075Z,75.05
2022-08-20T07:32:45.219Z,75.13
2022-08-20T07:35:22.448Z,75.15
2022-08-20T07:37:54.656Z,75.21
2022-08-20T07:40:29.170Z,75.24
2022-08-20T07:43:01.016Z,75.48
2022-08-20T07:45:49.726Z,75.62
2022-08-20T07:48:31.295Z,75.32
2022-08-20T07:51:03.445Z,75.49
2022-08-20T07:53:35.981Z,75.63
2022-08-20T07:56:08.181Z,75.88
2022-08-20T07:58:40.104Z,75.80
2022-08-20T08:01:08.539Z,75.95
2022-08-20T08:03:49.351Z,76.01
2022-08-20T08:06:29.647Z,75.89
2022-08-20T08:09:03.431Z,76.05
2022-08-20T08:11:34.818Z,76.15
2022-08-20T08:14:06.668Z,76.18
2022-08-20T08:16:39.609Z,76.21
2022-08-20T08:19:12.022Z,76.48
2022-08-20T08:21:42.850Z,76.37
2022-08-20T08:24:15.463Z,76.55
2022-08-20T08:26:45.448Z,76.69
2022-08-20T08:29:20.708Z,76.89
2022-08-20T08:31:49.066Z,76.53
2022-08-20T08:34:17.439Z,76.84
2022-08-20T08:36:45.590Z,76.83
2022-08-20T08:39:13.898Z,76.80
2022-08-20T08:41:47.402Z,76.92
2022-08-20T08:44:23.499Z,77.01
2022-08-20T08:46:56.357Z,76.97
2022-08-20T08:49:35.177Z,77.23
2022-08-20T08:52:12.523Z,77.36
2022-08-20T08:54:47.179Z,77.43
2022-08-20T08:57:15.725Z,77.31
2022-08-20T08:59:52.036Z,77.64
2022-08-20T09:02:32.171Z,77.62
2022-08-20T09:05:03.384Z,77.71
2022-08-20T09:07:34.875Z,77.56
2022-08-20T09:10:03.796Z,77.80
2022-08-20T09:12:33.210Z,77.88
2022-08-20T09:15:01.743Z,77.88
2022-08-20T09:17:31.242Z,77.76
2022-08-20T09:19:59.248Z,77.99
2022-08-20T09:22:27.494Z,78.21
2022-08-20T09:24:56.351Z,78.18
2022-08-20T09:27:24.419Z,78.18
2022-08-20T09:29:53.606Z,77.93
2022-08-20T09:32:24.716Z,78.48
2022-08-20T09:34:57.091Z,78.19
2022-08-20T09:37:27.011Z,78.33
2022-08-20T09:39:55.244Z,78.57
2022-08-20T09:42:25.107Z,78.55
2022-08-20T09:44:53.497Z,78.65
2022-08-20T09:47:22.359Z,78.57
2022-08-20T09:49:50.843Z,78.52
2022-08-20T09:52:23.861Z,78.66
2022-08-20T09:55:03.643Z,78.67
2022-08-20T09:57:33.135Z,78.86
2022-08-20T10:00:03.670Z,78.83
2022-08-20T10:02:32.000Z,78.79
2022-08-20T10:05:00.325Z,79.22
2022-08-20T10:07:29.777Z,79.05
2022-08-20T10:10:09.765Z,79.07
2022-08-20T10:12:37.936Z,79.27
2022-08-20T10:15:07.682Z,79.21
2022-08-20T10:17:38.996Z,79.15
2022-08-20T10:20:08.451Z,79.25
2022-08-20T10:22:40.737Z,79.05
2022-08-20T10:25:10.050Z,79.29
2022-08-20T10:27:38.627Z,79.27
2022-08-20T10:30:08.256Z,79.33
2022-08-20T10:32:36.448Z,79.44
2022-08-20T10:35:05.562Z,79.43
2022-08-20T10:37:35.115Z,79.28
2022-08-20T10:40:05.853Z,79.40
2022-08-20T10:42:40.441Z,79.30
2022-08-20T10:45:11.860Z,79.50
2022-08-20T10:47:40.091Z,79.33
2022-08-20T10:50:11.264Z,79.52
2022-08-20T10:52:39.308Z,79.73
2022-08-20T10:55:10.933Z,79.39
2022-08-20T10:57:43.536Z,79.32
2022-08-20T11:00:14.463Z,79.70
2022-08-20T11:02:42.534Z,79.38
2022-08-20T11:05:10.930Z,79.47
2022-08-20T11:07:50.624Z,79.84
2022-08-20T11:10:26.694Z,79.68
2022-08-20T11:12:56.668Z,79.64
2022-08-20T11:15:24.978Z,79.73
2022-08-20T11:17:53.326Z,79.98
2022-08-20T11:20:26.461Z,79.70
2022-08-20T11:22:55.375Z,79.59
2022-08-20T11:25:23.561Z,80.01
2022-08-20T11:27:54.316Z,80.05
2022-08-20T11:30:26.875Z,79.83
2022-08-20T11:32:55.984Z,79.79
2022-08-20T11:35:42.198Z,79.91
2022-08-20T11:38:13.394Z,80.09
2022-08-20T11:40:51.086Z,79.85
2022-08-20T11:43:23.183Z,80.09
2022-08-20T11:45:55.729Z,79.92
2022-08-20T11:48:23.991Z,80.10
2022-08-20T11:50:52.330Z,80.26
2022-08-20T11:53:20.654Z,79.89
2022-08-20T11:55:50.516Z,79.98
2022-08-20T11:58:18.930Z,80.03
2022-08-20T12:00:50.480Z,80.19
2022-08-20T12:03:18.653Z,80.13
2022-08-20T12:05:47.772Z,80.45
2022-08-20T12:08:26.866Z,80.21
2022-08-20T12:10:56.037Z,80.27
2022-08-20T12:13:29.992Z,80.46
2022-08-20T12:16:06.202Z,80.54
2022-08-20T12:18:34.545Z,80.26
2022-08-20T12:21:02.967Z,80.34
2022-08-20T12:23:31.212Z,80.52
2022-08-20T12:26:02.781Z,80.30
2022-08-20T12:28:31.509Z,80.53
2022-08-20T12:31:00.363Z,80.43
2022-08-20T12:33:33.088Z,80.60
2022-08-20T12:36:01.284Z,80.62
2022-08-20T12:38:29.443Z,80.68
2022-08-20T12:40:57.747Z,80.53
2022-08-20T12:43:25.728Z,80.62
2022-08-20T12:45:57.846Z,80.59
2022-08-20T12:48:41.288Z,80.75
2022-08-20T12:51:09.446Z,80.50
2022-08-20T12:53:37.671Z,80.58
2022-08-20T12:56:06.500Z,80.80
2022-08-20T12:58:35.376Z,80.40
2022-08-20T13:01:03.591Z,80.88
2022-08-20T13:03:33.436Z,80.73
2022-08-20T13:06:13.931Z,80.94
2022-08-20T13:08:42.628Z,80.57
2022-08-20T13:11:10.767Z,81.03
2022-08-20T13:13:38.990Z,80.78
2022-08-20T13:16:07.464Z,80.93
2022-08-20T13:18:37.013Z,80.88
2022-08-20T13:21:05.332Z,80.88
2022-08-20T13:23:34.321Z,80.87
2022-08-20T13:26:08.707Z,80.56
2022-08-20T13:28:36.901Z,80.75
2022-08-20T13:31:05.407Z,80.78
2022-08-20T13:33:33.758Z,80.90
2022-08-20T13:36:03.807Z,80.70
2022-08-20T13:38:32.595Z,80.56
2022-08-20T13:41:00.607Z,80.50
2022-08-20T13:43:28.466Z,80.75
2022-08-20T13:45:56.387Z,80.68
2022-08-20T13:48:27.832Z,80.46
2022-08-20T13:50:55.913Z,80.37
2022-08-20T13:53:25.362Z,80.56
2022-08-20T13:55:53.887Z,80.46
2022-08-20T13:58:23.137Z,80.20
2022-08-20T14:00:52.000Z,80.27
2022-08-20T14:03:25.764Z,80.50
2022-08-20T14:05:55.631Z,80.29
2022-08-20T14:08:25.837Z,80.33
2022-08-20T14:10:54.025Z,80.02
2022-08-20T14:13:23.937Z,80.08
2022-08-20T14:15:52.680Z,80.21
2022-08-20T14:18:21.034Z,79.97
2022-08-20T14:20:49.136Z,80.01
2022-08-20T14:23:17.721Z,79.89
2022-08-20T14:25:49.499Z,79.87
2022-08-20T14:28:20.090Z,80.00
2022-08-20T14:30:53.302Z,79.74
2022-08-20T14:33:22.314Z,79.44
2022-08-20T14:35:50.680Z,79.55
2022-08-20T14:38:18.735Z,79.74
2022-08-20T14:40:50.578Z,79.77
2022-08-20T14:43:19.101Z,79.54
2022-08-20T14:45:47.078Z,79.45
2022-08-20T14:48:15.319Z,79.52
2022-08-20T14:50:43.522Z,79.25
2022-08-20T14:53:11.849Z,79.43
2022-08-20T14:55:40.265Z,79.29
2022-08-20T14:58:10.559Z,79.32
2022-08-20T15:00:38.965Z,79.45
2022-08-20T15:03:07.081Z,79.58
2022-08-20T15:05:39.683Z,79.49
2022-08-20T15:08:10.568Z,79.62
2022-08-20T15:10:40.460Z,79.46
2022-08-20T15:13:10.439Z,79.25
2022-08-20T15:15:39.482Z,79.31
2022-08-20T15:18:08.045Z,79.60
2022-08-20T15:20:37.657Z,79.26
2022-08-20T15:23:07.754Z,79.24
2022-08-20T15:25:37.927Z,79.37
2022-08-20T15:28:08.887Z,79.29
2022-08-20T15:30:40.480Z,79.27
2022-08-20T15:33:09.498Z,79.33
2022-08-20T15:35:37.718Z,79.17
2022-08-20T15:38:05.989Z,78.89
2022-08-20T15:40:34.388Z,79.15
2022-08-20T15:43:08.926Z,79.02
2022-08-20T15:45:38.433Z,79.02
2022-08-20T15:48:13.080Z,78.91
2022-08-20T15:51:15.030Z,79.14
2022-08-20T15:53:53.535Z,79.23
2022-08-20T15:56:33.084Z,79.21
2022-08-20T15:59:13.344Z,79.07
2022-08-20T16:02:05.279Z,79.23
2022-08-20T16:04:54.437Z,78.91
2022-08-20T16:07:37.391Z,78.90
2022-08-20T16:10:15.909Z,79.02
2022-08-20T16:12:51.285Z,79.17
2022-08-20T16:15:24.272Z,79.16
2022-08-20T16:18:06.943Z,78.93
2022-08-20T16:20:40.745Z,78.71
2022-08-20T16:23:10.635Z,79.25
2022-08-20T16:25:52.880Z,79.37
2022-08-20T16:28:24.839Z,79.36
2022-08-20T16:31:00.772Z,79.22
2022-08-20T16:33:38.355Z,79.24
2022-08-20T16:36:12.093Z,79.40
2022-08-20T16:38:44.343Z,79.39
2022-08-20T16:41:19.483Z,79.12
2022-08-20T16:43:55.162Z,79.31
2022-08-20T16:46:27.241Z,79.49
2022-08-20T16:48:59.142Z,79.53
2022-08-20T16:51:40.912Z,79.40
2022-08-20T16:54:10.312Z,79.62
2022-08-20T16:56:41.556Z,79.74
2022-08-20T16:59:27.086Z,79.89
2022-08-20T17:02:10.137Z,79.89
2022-08-20T17:04:59.267Z,80.01
2022-08-20T17:07:33.437Z,79.87
2022-08-20T17:10:16.955Z,80.13
2022-08-20T17:12:52.521Z,80.09
2022-08-20T17:15:25.712Z,80.12
2022-08-20T17:17:55.910Z,80.29
2022-08-20T17:20:27.279Z,80.10
2022-08-20T17:23:12.249Z,80.28
2022-08-20T17:25:40.555Z,80.25
2022-08-20T17:28:17.217Z,80.19
2022-08-20T17:30:47.619Z,80.34
2022-08-20T17:33:32.756Z,80.38
2022-08-20T17:36:05.820Z,80.46
2022-08-20T17:38:38.057Z,80.38
2022-08-20T17:41:17.401Z,80.47
2022-08-20T17:43:46.677Z,80.54
2022-08-20T17:46:19.030Z,80.49
2022-08-20T17:48:49.323Z,80.66
2022-08-20T17:51:21.657Z,80.79
2022-08-20T17:53:52.856Z,80.93
2022-08-20T17:56:23.938Z,80.75
2022-08-20T17:58:58.163Z,80.95
2022-08-20T18:01:32.036Z,80.82
2022-08-20T18:04:00.206Z,80.94
2022-08-20T18:06:38.159Z,81.07
2022-08-20T18:09:14.707Z,80.96
2022-08-20T18:11:46.882Z,81.22
2022-08-20T18:14:35.375Z,81.33
2022-08-20T18:17:18.844Z,81.39
2022-08-20T18:20:21.978Z,81.38
2022-08-20T18:22:57.901Z,81.28
2022-08-20T18:25:36.580Z,81.40
2022-08-20T18:28:10.988Z,81.59
2022-08-20T18:30:49.091Z,81.40
2022-08-20T18:33:27.555Z,81.47
2022-08-20T18:36:07.373Z,81.58
2022-08-20T18:38:42.150Z,81.60
2022-08-20T18:41:28.145Z,81.71
2022-08-20T18:44:05.526Z,81.67
2022-08-20T18:46:37.777Z,81.67
2022-08-20T18:49:09.337Z,81.86
2022-08-20T18:51:42.741Z,81.96
2022-08-20T18:54:24.708Z,81.92
2022-08-20T18:57:04.380Z,82.28
2022-08-20T18:59:35.640Z,81.97
2022-08-20T19:02:15.794Z,82.13
2022-08-20T19:04:48.221Z,82.02
2022-08-20T19:07:21.851Z,82.13
2022-08-20T19:10:28.149Z,82.09
2022-08-20T19:13:24.322Z,82.17
2022-08-20T19:15:58.459Z,82.19
2022-08-20T19:18:33.653Z,82.17
2022-08-20T19:21:04.258Z,82.26
2022-08-20T19:23:39.628Z,82.25
2022-08-20T19:26:25.212Z,82.32
2022-08-20T19:28:58.312Z,82.23
2022-08-20T19:31:27.718Z,82.15
2022-08-20T19:34:15.009Z,82.14
2022-08-20T19:36:54.915Z,82.31
2022-08-20T19:39:25.607Z,82.23
2022-08-20T19:41:58.312Z,82.37
2022-08-20T19:44:38.644Z,82.45
2022-08-20T19:47:13.909Z,82.27
2022-08-20T19:49:55.231Z,82.41
2022-08-20T19:52:35.813Z,82.22
2022-08-20T19:55:04.414Z,82.27
2022-08-20T19:57:33.858Z,82.31
2022-08-20T20:00:12.452Z,82.41
2022-08-20T20:02:41.826Z,82.34
2022-08-20T20:05:21.047Z,82.38
2022-08-20T20:07:52.651Z,82.47
2022-08-20T20:10:32.906Z,82.48
2022-08-20T20:13:09.832Z,82.41
2022-08-20T20:15:39.191Z,82.33
2022-08-20T20:18:08.595Z,82.27
2022-08-20T20:20:55.065Z,82.40
2022-08-20T20:23:41.603Z,82.35
2022-08-20T20:26:20.026Z,82.44
2022-08-20T20:28:55.239Z,82.32
2022-08-20T20:31:30.477Z,82.33
2022-08-20T20:34:03.409Z,82.30
2022-08-20T20:36:36.482Z,82.36
2022-08-20T20:39:10.264Z,82.50
2022-08-20T20:41:54.254Z,82.48
2022-08-20T20:44:27.358Z,82.46
2022-08-20T20:47:00.687Z,82.43
2022-08-20T20:49:31.346Z,82.54
2022-08-20T20:52:02.770Z,82.57
2022-08-20T20:54:42.116Z,82.64
2022-08-20T20:57:36.344Z,82.71
2022-08-20T21:00:12.796Z,82.67
2022-08-20T21:02:41.201Z,82.54
2022-08-20T21:05:10.574Z,82.57
2022-08-20T21:07:50.176Z,82.69
2022-08-20T21:10:21.323Z,82.77
2022-08-20T21:12:52.893Z,82.64
2022-08-20T21:15:25.758Z,82.74
2022-08-20T21:17:54.166Z,82.73
2022-08-20T21:20:23.641Z,82.82
2022-08-20T21:22:52.094Z,82.82
2022-08-20T21:25:20.426Z,82.89
2022-08-20T21:27:50.368Z,82.83
2022-08-20T21:30:19.761Z,82.85
2022-08-20T21:32:49.289Z,82.93
2022-08-20T21:35:17.932Z,82.92
2022-08-20T21:37:45.979Z,83.05
2022-08-20T21:40:14.764Z,82.92
2022-08-20T21:42:46.420Z,83.04
2022-08-20T21:45:19.659Z,83.10
2022-08-20T21:47:49.943Z,83.14
2022-08-20T21:50:18.883Z,83.13
2022-08-20T21:52:55.056Z,83.10
2022-08-20T21:55:39.565Z,83.07
2022-08-20T21:58:10.482Z,83.14
2022-08-20T22:00:55.415Z,83.26
2022-08-20T22:03:27.337Z,83.20
2022-08-20T22:05:56.092Z,83.28
2022-08-20T22:08:28.495Z,83.43
2022-08-20T22:10:58.143Z,83.16
2022-08-20T22:13:28.331Z,83.26
2022-08-20T22:15:56.773Z,83.37
2022-08-20T22:18:26.513Z,83.43
2022-08-20T22:20:57.856Z,83.40
2022-08-20T22:23:26.485Z,83.47
2022-08-20T22:25:54.736Z,83.43
2022-08-20T22:28:23.250Z,83.44
2022-08-20T22:30:54.007Z,83.55
2022-08-20T22:33:25.640Z,83.46
2022-08-20T22:35:57.939Z,83.57
2022-08-20T22:38:26.832Z,83.45
2022-08-20T22:40:55.131Z,83.52
2022-08-20T22:43:24.550Z,83.50
2022-08-20T22:45:58.785Z,83.53
2022-08-20T22:48:27.142Z,83.60
2022-08-20T22:50:57.863Z,83.76
2022-08-20T22:53:28.796Z,83.67
2022-08-20T22:55:57.280Z,83.54
2022-08-20T22:58:30.996Z,83.89
2022-08-20T23:01:01.353Z,83.73
2022-08-20T23:03:39.638Z,83.75
2022-08-20T23:06:11.519Z,83.84
2022-08-20T23:08:40.546Z,83.83
2022-08-20T23:11:08.837Z,83.88
2022-08-20T23:13:37.135Z,83.84
2022-08-20T23:16:05.854Z,83.90
2022-08-20T23:18:33.947Z,83.88
2022-08-20T23:21:02.280Z,84.12
2022-08-20T23:23:32.146Z,83.74
2022-08-20T23:26:01.800Z,84.09
2022-08-20T23:28:30.058Z,84.11
2022-08-20T23:30:58.351Z,84.00
2022-08-20T23:33:26.629Z,84.09
2022-08-20T23:35:54.859Z,84.14
2022-08-20T23:38:23.373Z,84.13
2022-08-20T23:40:52.796Z,84.20
2022-08-20T23:43:20.964Z,84.25
2022-08-20T23:45:49.408Z,84.25
2022-08-20T23:48:17.713Z,84.40
2022-08-20T23:50:46.013Z,84.46
2022-08-20T23:53:14.843Z,84.34
2022-08-20T23:55:43.120Z,84.49
2022-08-20T23:58:12.763Z,84.40
